sensor_id;sensor_type;location;lat;lon;timestamp;P1;durP1;ratioP1;P2;durP2;ratioP2
63784;SDS011;49927;48.146;11.420;2022-10-17T00:00:39;18.63;;;8.95;;
63784;SDS011;49927;48.146;11.420;2022-10-17T00:03:04;19.65;;;11.38;;
63784;SDS011;49927;48.146;11.420;2022-10-17T00:05:30;27.08;;;6.63;;
63784;SDS011;49927;48.146;11.420;2022-10-17T00:07:55;8.82;;;4.80;;
63784;SDS011;49927;48.146;11.420;2022-10-17T00:10:21;26.13;;;12.45;;
63784;SDS011;49927;48.146;11.420;2022-10-17T00:12:46;19.58;;;10.93;;
63784;SDS011;49927;48.146;11.420;2022-10-17T00:15:15;11.38;;;6.85;;
63784;SDS011;49927;48.146;11.420;2022-10-17T00:17:41;10.60;;;5.22;;
63784;SDS011;49927;48.146;11.420;2022-10-17T00:20:07;11.05;;;5.78;;
63784;SDS011;49927;48.146;11.420;2022-10-17T00:22:33;33.22;;;14.23;;
63784;SDS011;49927;48.146;11.420;2022-10-17T00:24:58;12.13;;;6.22;;
63784;SDS011;49927;48.146;11.420;2022-10-17T00:27:24;68.88;;;27.83;;
63784;SDS011;49927;48.146;11.420;2022-10-17T00:29:49;100.63;;;39.25;;
63784;SDS011;49927;48.146;11.420;2022-10-17T00:32:17;28.48;;;12.63;;
63784;SDS011;49927;48.146;11.420;2022-10-17T00:34:43;47.70;;;17.50;;
63784;SDS011;49927;48.146;11.420;2022-10-17T00:37:08;14.57;;;6.47;;
63784;SDS011;49927;48.146;11.420;2022-10-17T00:39:34;9.10;;;3.95;;
63784;SDS011;49927;48.146;11.420;2022-10-17T00:42:00;7.63;;;3.85;;
63784;SDS011;49927;48.146;11.420;2022-10-17T00:47:25;437.45;;;165.32;;
63784;SDS011;49927;48.146;11.420;2022-10-17T00:49:50;631.78;;;247.73;;
63784;SDS011;49927;48.146;11.420;2022-10-17T00:52:17;255.20;;;87.10;;
63784;SDS011;49927;48.146;11.420;2022-10-17T00:54:45;137.40;;;44.05;;
63784;SDS011;49927;48.146;11.420;2022-10-17T00:57:13;36.63;;;11.98;;
63784;SDS011;49927;48.146;11.420;2022-10-17T00:59:39;11.85;;;5.28;;
63784;SDS011;49927;48.146;11.420;2022-10-17T01:02:06;10.32;;;5.22;;
63784;SDS011;49927;48.146;11.420;2022-10-17T01:04:35;58.97;;;29.95;;
63784;SDS011;49927;48.146;11.420;2022-10-17T01:07:01;52.55;;;27.90;;
63784;SDS011;49927;48.146;11.420;2022-10-17T01:09:26;71.38;;;35.42;;
63784;SDS011;49927;48.146;11.420;2022-10-17T01:11:54;255.48;;;119.82;;
63784;SDS011;49927;48.146;11.420;2022-10-17T01:14:22;71.63;;;33.75;;
63784;SDS011;49927;48.146;11.420;2022-10-17T01:16:51;21.20;;;10.10;;
63784;SDS011;49927;48.146;11.420;2022-10-17T01:19:26;10.73;;;5.57;;
63784;SDS011;49927;48.146;11.420;2022-10-17T01:22:14;7.75;;;3.75;;
63784;SDS011;49927;48.146;11.420;2022-10-17T01:24:49;33.55;;;13.32;;
63784;SDS011;49927;48.146;11.420;2022-10-17T01:30:43;7.65;;;4.03;;
63784;SDS011;49927;48.146;11.420;2022-10-17T01:33:14;21.50;;;12.38;;
63784;SDS011;49927;48.146;11.420;2022-10-17T01:35:45;14.77;;;7.25;;
63784;SDS011;49927;48.146;11.420;2022-10-17T01:38:15;6.65;;;3.55;;
63784;SDS011;49927;48.146;11.420;2022-10-17T01:40:45;4.93;;;3.00;;
63784;SDS011;49927;48.146;11.420;2022-10-17T01:43:16;5.28;;;3.10;;
63784;SDS011;49927;48.146;11.420;2022-10-17T01:45:46;5.32;;;2.88;;
63784;SDS011;49927;48.146;11.420;2022-10-17T01:48:14;9.15;;;4.53;;
63784;SDS011;49927;48.146;11.420;2022-10-17T01:50:43;4.93;;;3.70;;
63784;SDS011;49927;48.146;11.420;2022-10-17T01:53:12;3.22;;;2.92;;
63784;SDS011;49927;48.146;11.420;2022-10-17T01:55:40;13.10;;;6.50;;
63784;SDS011;49927;48.146;11.420;2022-10-17T01:58:08;27.92;;;13.95;;
63784;SDS011;49927;48.146;11.420;2022-10-17T02:00:35;26.08;;;10.80;;
63784;SDS011;49927;48.146;11.420;2022-10-17T02:03:04;14.23;;;8.20;;
63784;SDS011;49927;48.146;11.420;2022-10-17T02:05:32;46.45;;;20.30;;
63784;SDS011;49927;48.146;11.420;2022-10-17T02:08:02;201.10;;;95.15;;
63784;SDS011;49927;48.146;11.420;2022-10-17T02:10:30;67.20;;;35.22;;
63784;SDS011;49927;48.146;11.420;2022-10-17T02:13:00;58.67;;;27.67;;
63784;SDS011;49927;48.146;11.420;2022-10-17T02:15:34;13.30;;;8.10;;
63784;SDS011;49927;48.146;11.420;2022-10-17T02:18:12;10.50;;;5.47;;
63784;SDS011;49927;48.146;11.420;2022-10-17T02:20:44;9.80;;;4.25;;
63784;SDS011;49927;48.146;11.420;2022-10-17T02:23:16;60.72;;;30.25;;
63784;SDS011;49927;48.146;11.420;2022-10-17T02:25:47;21.65;;;13.18;;
63784;SDS011;49927;48.146;11.420;2022-10-17T02:28:18;8.07;;;4.55;;
63784;SDS011;49927;48.146;11.420;2022-10-17T02:30:46;36.90;;;19.02;;
63784;SDS011;49927;48.146;11.420;2022-10-17T02:33:17;21.77;;;9.88;;
63784;SDS011;49927;48.146;11.420;2022-10-17T02:35:46;10.65;;;4.72;;
63784;SDS011;49927;48.146;11.420;2022-10-17T02:38:14;46.03;;;27.85;;
63784;SDS011;49927;48.146;11.420;2022-10-17T02:40:40;21.23;;;12.82;;
63784;SDS011;49927;48.146;11.420;2022-10-17T02:43:06;94.03;;;53.40;;
63784;SDS011;49927;48.146;11.420;2022-10-17T02:45:32;98.90;;;62.35;;
63784;SDS011;49927;48.146;11.420;2022-10-17T02:47:59;48.33;;;32.33;;
63784;SDS011;49927;48.146;11.420;2022-10-17T02:50:32;17.83;;;11.52;;
63784;SDS011;49927;48.146;11.420;2022-10-17T02:53:03;20.73;;;11.68;;
63784;SDS011;49927;48.146;11.420;2022-10-17T02:55:31;25.33;;;15.65;;
63784;SDS011;49927;48.146;11.420;2022-10-17T02:57:58;23.00;;;14.68;;
63784;SDS011;49927;48.146;11.420;2022-10-17T03:00:26;15.13;;;9.30;;
63784;SDS011;49927;48.146;11.420;2022-10-17T03:02:53;10.00;;;5.15;;
63784;SDS011;49927;48.146;11.420;2022-10-17T03:05:19;5.38;;;3.38;;
63784;SDS011;49927;48.146;11.420;2022-10-17T03:07:47;13.90;;;6.82;;
63784;SDS011;49927;48.146;11.420;2022-10-17T03:10:13;9.90;;;6.18;;
63784;SDS011;49927;48.146;11.420;2022-10-17T03:12:38;7.25;;;4.80;;
63784;SDS011;49927;48.146;11.420;2022-10-17T03:15:04;9.52;;;5.93;;
63784;SDS011;49927;48.146;11.420;2022-10-17T03:17:30;11.00;;;7.05;;
63784;SDS011;49927;48.146;11.420;2022-10-17T03:19:56;13.57;;;4.93;;
63784;SDS011;49927;48.146;11.420;2022-10-17T03:22:22;7.03;;;3.70;;
63784;SDS011;49927;48.146;11.420;2022-10-17T03:24:49;8.57;;;5.97;;
63784;SDS011;49927;48.146;11.420;2022-10-17T03:27:14;17.10;;;8.60;;
63784;SDS011;49927;48.146;11.420;2022-10-17T03:29:40;50.92;;;30.63;;
63784;SDS011;49927;48.146;11.420;2022-10-17T03:32:05;40.95;;;24.77;;
63784;SDS011;49927;48.146;11.420;2022-10-17T03:34:31;17.38;;;11.90;;
63784;SDS011;49927;48.146;11.420;2022-10-17T03:36:56;13.50;;;8.30;;
63784;SDS011;49927;48.146;11.420;2022-10-17T03:39:22;12.77;;;7.75;;
63784;SDS011;49927;48.146;11.420;2022-10-17T03:41:49;25.63;;;15.20;;
63784;SDS011;49927;48.146;11.420;2022-10-17T03:44:14;18.83;;;9.70;;
63784;SDS011;49927;48.146;11.420;2022-10-17T03:46:40;14.93;;;8.48;;
63784;SDS011;49927;48.146;11.420;2022-10-17T03:49:05;27.27;;;16.15;;
63784;SDS011;49927;48.146;11.420;2022-10-17T03:51:32;15.52;;;9.10;;
63784;SDS011;49927;48.146;11.420;2022-10-17T03:53:58;5.82;;;4.60;;
63784;SDS011;49927;48.146;11.420;2022-10-17T03:56:23;6.40;;;3.80;;
63784;SDS011;49927;48.146;11.420;2022-10-17T03:58:51;30.83;;;14.00;;
63784;SDS011;49927;48.146;11.420;2022-10-17T04:01:16;27.08;;;13.73;;
63784;SDS011;49927;48.146;11.420;2022-10-17T04:03:42;14.65;;;8.23;;
63784;SDS011;49927;48.146;11.420;2022-10-17T04:06:09;7.82;;;4.72;;
63784;SDS011;49927;48.146;11.420;2022-10-17T04:08:36;5.80;;;3.15;;
63784;SDS011;49927;48.146;11.420;2022-10-17T04:11:02;10.13;;;2.80;;
63784;SDS011;49927;48.146;11.420;2022-10-17T04:13:29;5.32;;;3.35;;
63784;SDS011;49927;48.146;11.420;2022-10-17T04:15:56;8.23;;;4.57;;
63784;SDS011;49927;48.146;11.420;2022-10-17T04:18:23;11.05;;;6.47;;
63784;SDS011;49927;48.146;11.420;2022-10-17T04:20:49;9.73;;;4.00;;
63784;SDS011;49927;48.146;11.420;2022-10-17T04:23:15;5.13;;;3.60;;
63784;SDS011;49927;48.146;11.420;2022-10-17T04:25:41;4.07;;;3.05;;
63784;SDS011;49927;48.146;11.420;2022-10-17T04:28:07;7.88;;;3.50;;
63784;SDS011;49927;48.146;11.420;2022-10-17T04:30:32;5.53;;;3.47;;
63784;SDS011;49927;48.146;11.420;2022-10-17T04:32:59;8.35;;;3.60;;
63784;SDS011;49927;48.146;11.420;2022-10-17T04:35:24;4.57;;;3.22;;
63784;SDS011;49927;48.146;11.420;2022-10-17T04:37:50;5.68;;;3.33;;
63784;SDS011;49927;48.146;11.420;2022-10-17T04:40:15;4.90;;;2.92;;
63784;SDS011;49927;48.146;11.420;2022-10-17T04:42:41;6.93;;;3.58;;
63784;SDS011;49927;48.146;11.420;2022-10-17T04:45:07;9.80;;;2.75;;
63784;SDS011;49927;48.146;11.420;2022-10-17T04:47:33;10.95;;;3.42;;
63784;SDS011;49927;48.146;11.420;2022-10-17T04:50:00;4.63;;;3.17;;
63784;SDS011;49927;48.146;11.420;2022-10-17T04:52:25;10.85;;;4.65;;
63784;SDS011;49927;48.146;11.420;2022-10-17T04:54:51;20.52;;;4.13;;
63784;SDS011;49927;48.146;11.420;2022-10-17T04:57:16;6.05;;;3.38;;
63784;SDS011;49927;48.146;11.420;2022-10-17T04:59:42;4.72;;;3.13;;
63784;SDS011;49927;48.146;11.420;2022-10-17T05:02:07;17.85;;;3.95;;
63784;SDS011;49927;48.146;11.420;2022-10-17T05:04:33;7.65;;;3.67;;
63784;SDS011;49927;48.146;11.420;2022-10-17T05:07:00;5.32;;;3.10;;
63784;SDS011;49927;48.146;11.420;2022-10-17T05:09:26;4.90;;;3.63;;
63784;SDS011;49927;48.146;11.420;2022-10-17T05:11:51;5.82;;;3.28;;
63784;SDS011;49927;48.146;11.420;2022-10-17T05:14:17;4.07;;;3.38;;
63784;SDS011;49927;48.146;11.420;2022-10-17T05:16:42;8.00;;;4.45;;
63784;SDS011;49927;48.146;11.420;2022-10-17T05:19:08;11.45;;;4.40;;
63784;SDS011;49927;48.146;11.420;2022-10-17T05:21:33;10.82;;;5.50;;
63784;SDS011;49927;48.146;11.420;2022-10-17T05:24:00;15.75;;;6.90;;
63784;SDS011;49927;48.146;11.420;2022-10-17T05:26:26;7.78;;;3.97;;
63784;SDS011;49927;48.146;11.420;2022-10-17T05:28:51;9.98;;;4.65;;
63784;SDS011;49927;48.146;11.420;2022-10-17T05:31:17;8.02;;;4.60;;
63784;SDS011;49927;48.146;11.420;2022-10-17T05:33:42;9.10;;;3.38;;
63784;SDS011;49927;48.146;11.420;2022-10-17T06:07:41;7.83;;;4.97;;
63784;SDS011;49927;48.146;11.420;2022-10-17T06:10:07;10.70;;;5.80;;
63784;SDS011;49927;48.146;11.420;2022-10-17T06:12:33;10.50;;;4.88;;
63784;SDS011;49927;48.146;11.420;2022-10-17T06:15:00;10.43;;;4.93;;
63784;SDS011;49927;48.146;11.420;2022-10-17T06:17:25;5.45;;;4.32;;
63784;SDS011;49927;48.146;11.420;2022-10-17T06:19:51;9.10;;;4.75;;
63784;SDS011;49927;48.146;11.420;2022-10-17T06:22:16;12.68;;;5.35;;
63784;SDS011;49927;48.146;11.420;2022-10-17T06:24:42;13.95;;;6.53;;
63784;SDS011;49927;48.146;11.420;2022-10-17T06:27:07;12.20;;;7.57;;
63784;SDS011;49927;48.146;11.420;2022-10-17T06:29:33;32.92;;;15.35;;
63784;SDS011;49927;48.146;11.420;2022-10-17T06:31:59;39.65;;;10.77;;
63784;SDS011;49927;48.146;11.420;2022-10-17T06:34:25;27.52;;;13.40;;
63784;SDS011;49927;48.146;11.420;2022-10-17T06:36:51;19.25;;;8.88;;
63784;SDS011;49927;48.146;11.420;2022-10-17T06:39:17;23.00;;;10.63;;
63784;SDS011;49927;48.146;11.420;2022-10-17T06:41:42;59.00;;;23.10;;
63784;SDS011;49927;48.146;11.420;2022-10-17T06:44:08;10.15;;;6.43;;
63784;SDS011;49927;48.146;11.420;2022-10-17T06:46:34;28.55;;;12.32;;
63784;SDS011;49927;48.146;11.420;2022-10-17T06:49:00;19.08;;;8.82;;
63784;SDS011;49927;48.146;11.420;2022-10-17T06:51:26;16.95;;;7.13;;
63784;SDS011;49927;48.146;11.420;2022-10-17T06:53:51;17.63;;;6.13;;
63784;SDS011;49927;48.146;11.420;2022-10-17T06:56:17;11.77;;;6.05;;
63784;SDS011;49927;48.146;11.420;2022-10-17T06:58:42;24.38;;;9.18;;
63784;SDS011;49927;48.146;11.420;2022-10-17T07:01:08;16.00;;;6.57;;
63784;SDS011;49927;48.146;11.420;2022-10-17T07:03:35;12.18;;;5.20;;
63784;SDS011;49927;48.146;11.420;2022-10-17T07:06:03;9.23;;;4.93;;
63784;SDS011;49927;48.146;11.420;2022-10-17T07:08:29;24.50;;;9.40;;
63784;SDS011;49927;48.146;11.420;2022-10-17T07:10:54;24.17;;;10.00;;
63784;SDS011;49927;48.146;11.420;2022-10-17T07:13:20;16.52;;;7.82;;
63784;SDS011;49927;48.146;11.420;2022-10-17T07:15:45;19.73;;;6.25;;
63784;SDS011;49927;48.146;11.420;2022-10-17T07:18:11;12.48;;;5.68;;
63784;SDS011;49927;48.146;11.420;2022-10-17T07:20:37;7.93;;;4.53;;
63784;SDS011;49927;48.146;11.420;2022-10-17T07:23:03;5.82;;;4.10;;
63784;SDS011;49927;48.146;11.420;2022-10-17T07:25:29;15.82;;;6.97;;
63784;SDS011;49927;48.146;11.420;2022-10-17T07:27:54;8.85;;;4.78;;
63784;SDS011;49927;48.146;11.420;2022-10-17T07:30:20;12.38;;;3.30;;
63784;SDS011;49927;48.146;11.420;2022-10-17T07:32:46;12.10;;;3.75;;
63784;SDS011;49927;48.146;11.420;2022-10-17T07:35:11;5.47;;;3.85;;
63784;SDS011;49927;48.146;11.420;2022-10-17T07:37:37;5.10;;;3.88;;
63784;SDS011;49927;48.146;11.420;2022-10-17T07:40:06;8.23;;;3.72;;
63784;SDS011;49927;48.146;11.420;2022-10-17T07:42:32;6.28;;;3.22;;
63784;SDS011;49927;48.146;11.420;2022-10-17T07:44:58;8.68;;;3.22;;
63784;SDS011;49927;48.146;11.420;2022-10-17T07:47:23;8.85;;;3.20;;
63784;SDS011;49927;48.146;11.420;2022-10-17T07:49:49;5.80;;;3.92;;
63784;SDS011;49927;48.146;11.420;2022-10-17T07:52:15;5.22;;;3.08;;
63784;SDS011;49927;48.146;11.420;2022-10-17T07:54:42;4.85;;;2.97;;
63784;SDS011;49927;48.146;11.420;2022-10-17T07:57:09;8.50;;;3.90;;
63784;SDS011;49927;48.146;11.420;2022-10-17T07:59:36;4.57;;;2.90;;
63784;SDS011;49927;48.146;11.420;2022-10-17T08:02:02;5.45;;;3.72;;
63784;SDS011;49927;48.146;11.420;2022-10-17T08:04:28;9.38;;;4.53;;
63784;SDS011;49927;48.146;11.420;2022-10-17T08:06:53;5.00;;;3.10;;
63784;SDS011;49927;48.146;11.420;2022-10-17T08:09:19;5.57;;;3.20;;
63784;SDS011;49927;48.146;11.420;2022-10-17T08:11:45;6.28;;;3.70;;
63784;SDS011;49927;48.146;11.420;2022-10-17T08:14:12;4.22;;;3.03;;
63784;SDS011;49927;48.146;11.420;2022-10-17T08:16:38;4.25;;;2.60;;
63784;SDS011;49927;48.146;11.420;2022-10-17T08:19:03;3.85;;;3.10;;
63784;SDS011;49927;48.146;11.420;2022-10-17T08:21:29;9.73;;;3.85;;
63784;SDS011;49927;48.146;11.420;2022-10-17T08:23:54;4.70;;;3.40;;
63784;SDS011;49927;48.146;11.420;2022-10-17T08:26:20;5.22;;;3.20;;
63784;SDS011;49927;48.146;11.420;2022-10-17T08:28:46;3.60;;;2.70;;
63784;SDS011;49927;48.146;11.420;2022-10-17T08:31:13;4.82;;;3.17;;
63784;SDS011;49927;48.146;11.420;2022-10-17T08:33:40;5.25;;;2.70;;
63784;SDS011;49927;48.146;11.420;2022-10-17T08:36:06;3.75;;;2.53;;
63784;SDS011;49927;48.146;11.420;2022-10-17T08:38:33;8.32;;;3.13;;
63784;SDS011;49927;48.146;11.420;2022-10-17T08:40:59;7.10;;;3.35;;
63784;SDS011;49927;48.146;11.420;2022-10-17T08:43:34;7.63;;;2.88;;
63784;SDS011;49927;48.146;11.420;2022-10-17T08:46:06;6.70;;;2.70;;
63784;SDS011;49927;48.146;11.420;2022-10-17T08:48:35;4.75;;;2.90;;
63784;SDS011;49927;48.146;11.420;2022-10-17T08:51:04;5.70;;;2.85;;
63784;SDS011;49927;48.146;11.420;2022-10-17T08:53:37;9.20;;;2.55;;
63784;SDS011;49927;48.146;11.420;2022-10-17T08:56:06;7.78;;;3.78;;
63784;SDS011;49927;48.146;11.420;2022-10-17T08:58:38;5.75;;;2.55;;
63784;SDS011;49927;48.146;11.420;2022-10-17T09:01:04;4.72;;;2.58;;
63784;SDS011;49927;48.146;11.420;2022-10-17T09:03:37;7.13;;;2.53;;
63784;SDS011;49927;48.146;11.420;2022-10-17T09:06:11;3.70;;;2.53;;
63784;SDS011;49927;48.146;11.420;2022-10-17T09:08:43;4.47;;;2.42;;
63784;SDS011;49927;48.146;11.420;2022-10-17T09:11:17;3.60;;;2.63;;
63784;SDS011;49927;48.146;11.420;2022-10-17T09:13:52;7.55;;;2.38;;
63784;SDS011;49927;48.146;11.420;2022-10-17T09:16:31;3.42;;;2.40;;
63784;SDS011;49927;48.146;11.420;2022-10-17T09:19:08;3.15;;;2.60;;
63784;SDS011;49927;48.146;11.420;2022-10-17T09:21:38;4.65;;;2.55;;
63784;SDS011;49927;48.146;11.420;2022-10-17T09:24:09;3.17;;;2.13;;
63784;SDS011;49927;48.146;11.420;2022-10-17T09:26:39;4.60;;;2.40;;
63784;SDS011;49927;48.146;11.420;2022-10-17T09:31:39;5.20;;;2.50;;
63784;SDS011;49927;48.146;11.420;2022-10-17T09:34:08;4.95;;;2.70;;
63784;SDS011;49927;48.146;11.420;2022-10-17T09:36:35;3.45;;;2.42;;
63784;SDS011;49927;48.146;11.420;2022-10-17T09:39:03;4.57;;;2.80;;
63784;SDS011;49927;48.146;11.420;2022-10-17T09:41:32;10.38;;;2.65;;
63784;SDS011;49927;48.146;11.420;2022-10-17T09:43:58;3.72;;;2.58;;
63784;SDS011;49927;48.146;11.420;2022-10-17T09:46:40;5.82;;;2.60;;
63784;SDS011;49927;48.146;11.420;2022-10-17T09:49:11;3.58;;;2.67;;
63784;SDS011;49927;48.146;11.420;2022-10-17T09:51:42;8.63;;;2.78;;
63784;SDS011;49927;48.146;11.420;2022-10-17T09:54:10;6.70;;;2.78;;
63784;SDS011;49927;48.146;11.420;2022-10-17T09:56:55;3.45;;;2.50;;
63784;SDS011;49927;48.146;11.420;2022-10-17T09:59:28;3.35;;;2.22;;
63784;SDS011;49927;48.146;11.420;2022-10-17T10:01:58;3.50;;;3.00;;
63784;SDS011;49927;48.146;11.420;2022-10-17T10:04:33;3.85;;;3.03;;
63784;SDS011;49927;48.146;11.420;2022-10-17T10:07:02;5.30;;;2.67;;
63784;SDS011;49927;48.146;11.420;2022-10-17T10:09:29;3.90;;;2.30;;
63784;SDS011;49927;48.146;11.420;2022-10-17T10:11:56;5.35;;;2.50;;
63784;SDS011;49927;48.146;11.420;2022-10-17T10:14:23;3.60;;;2.25;;
63784;SDS011;49927;48.146;11.420;2022-10-17T10:16:53;5.43;;;2.00;;
63784;SDS011;49927;48.146;11.420;2022-10-17T10:19:20;2.75;;;2.20;;
63784;SDS011;49927;48.146;11.420;2022-10-17T10:21:55;4.07;;;2.45;;
63784;SDS011;49927;48.146;11.420;2022-10-17T10:24:21;2.63;;;1.98;;
63784;SDS011;49927;48.146;11.420;2022-10-17T10:26:46;2.63;;;2.30;;
63784;SDS011;49927;48.146;11.420;2022-10-17T10:29:20;2.78;;;2.13;;
63784;SDS011;49927;48.146;11.420;2022-10-17T10:31:47;1.90;;;1.65;;
63784;SDS011;49927;48.146;11.420;2022-10-17T10:34:15;2.60;;;2.10;;
63784;SDS011;49927;48.146;11.420;2022-10-17T10:36:44;3.13;;;2.30;;
63784;SDS011;49927;48.146;11.420;2022-10-17T10:39:18;4.85;;;2.08;;
63784;SDS011;49927;48.146;11.420;2022-10-17T10:41:51;4.10;;;2.20;;
63784;SDS011;49927;48.146;11.420;2022-10-17T10:44:16;3.97;;;2.30;;
63784;SDS011;49927;48.146;11.420;2022-10-17T10:46:45;3.63;;;2.33;;
63784;SDS011;49927;48.146;11.420;2022-10-17T10:49:26;5.78;;;2.17;;
63784;SDS011;49927;48.146;11.420;2022-10-17T10:51:53;2.88;;;2.40;;
63784;SDS011;49927;48.146;11.420;2022-10-17T10:54:21;4.22;;;2.42;;
63784;SDS011;49927;48.146;11.420;2022-10-17T10:56:49;2.40;;;2.03;;
63784;SDS011;49927;48.146;11.420;2022-10-17T10:59:29;4.68;;;2.28;;
63784;SDS011;49927;48.146;11.420;2022-10-17T11:01:59;5.47;;;2.00;;
63784;SDS011;49927;48.146;11.420;2022-10-17T11:04:33;2.33;;;2.13;;
63784;SDS011;49927;48.146;11.420;2022-10-17T11:07:02;7.03;;;2.90;;
63784;SDS011;49927;48.146;11.420;2022-10-17T11:09:33;13.38;;;3.45;;
63784;SDS011;49927;48.146;11.420;2022-10-17T11:12:09;3.63;;;2.50;;
63784;SDS011;49927;48.146;11.420;2022-10-17T11:14:39;4.35;;;1.98;;
63784;SDS011;49927;48.146;11.420;2022-10-17T11:17:11;3.22;;;2.10;;
63784;SDS011;49927;48.146;11.420;2022-10-17T11:19:41;4.95;;;2.58;;
63784;SDS011;49927;48.146;11.420;2022-10-17T11:22:12;2.67;;;2.15;;
63784;SDS011;49927;48.146;11.420;2022-10-17T11:24:42;3.97;;;2.40;;
63784;SDS011;49927;48.146;11.420;2022-10-17T11:27:10;4.30;;;2.08;;
63784;SDS011;49927;48.146;11.420;2022-10-17T11:29:38;6.28;;;2.42;;
63784;SDS011;49927;48.146;11.420;2022-10-17T11:32:05;3.47;;;2.05;;
63784;SDS011;49927;48.146;11.420;2022-10-17T11:34:34;3.35;;;2.08;;
63784;SDS011;49927;48.146;11.420;2022-10-17T11:37:03;3.65;;;2.70;;
63784;SDS011;49927;48.146;11.420;2022-10-17T11:39:34;2.72;;;2.38;;
63784;SDS011;49927;48.146;11.420;2022-10-17T11:42:05;2.92;;;2.05;;
63784;SDS011;49927;48.146;11.420;2022-10-17T11:44:41;3.88;;;2.85;;
63784;SDS011;49927;48.146;11.420;2022-10-17T11:47:10;2.95;;;2.50;;
63784;SDS011;49927;48.146;11.420;2022-10-17T11:49:39;3.65;;;2.75;;
63784;SDS011;49927;48.146;11.420;2022-10-17T11:52:09;4.78;;;2.75;;
63784;SDS011;49927;48.146;11.420;2022-10-17T11:54:44;5.82;;;3.13;;
63784;SDS011;49927;48.146;11.420;2022-10-17T11:57:21;3.53;;;2.60;;
63784;SDS011;49927;48.146;11.420;2022-10-17T11:59:58;3.05;;;2.25;;
63784;SDS011;49927;48.146;11.420;2022-10-17T12:02:32;2.40;;;1.77;;
63784;SDS011;49927;48.146;11.420;2022-10-17T12:05:02;3.97;;;2.83;;
63784;SDS011;49927;48.146;11.420;2022-10-17T12:07:35;3.17;;;1.95;;
63784;SDS011;49927;48.146;11.420;2022-10-17T12:10:06;7.47;;;2.65;;
63784;SDS011;49927;48.146;11.420;2022-10-17T12:12:44;3.78;;;2.17;;
63784;SDS011;49927;48.146;11.420;2022-10-17T12:15:28;3.95;;;1.95;;
63784;SDS011;49927;48.146;11.420;2022-10-17T12:17:55;4.43;;;2.50;;
63784;SDS011;49927;48.146;11.420;2022-10-17T12:20:25;5.70;;;2.20;;
63784;SDS011;49927;48.146;11.420;2022-10-17T12:22:55;6.78;;;1.85;;
63784;SDS011;49927;48.146;11.420;2022-10-17T12:25:24;2.88;;;2.00;;
63784;SDS011;49927;48.146;11.420;2022-10-17T12:27:59;1.98;;;1.65;;
63784;SDS011;49927;48.146;11.420;2022-10-17T12:30:29;7.95;;;2.00;;
63784;SDS011;49927;48.146;11.420;2022-10-17T12:32:56;1.70;;;1.60;;
63784;SDS011;49927;48.146;11.420;2022-10-17T12:35:29;1.98;;;1.60;;
63784;SDS011;49927;48.146;11.420;2022-10-17T12:38:12;4.10;;;2.20;;
63784;SDS011;49927;48.146;11.420;2022-10-17T12:40:46;3.15;;;1.92;;
63784;SDS011;49927;48.146;11.420;2022-10-17T12:49:18;5.07;;;1.92;;
63784;SDS011;49927;48.146;11.420;2022-10-17T12:52:21;3.00;;;1.73;;
63784;SDS011;49927;48.146;11.420;2022-10-17T12:57:32;3.08;;;1.98;;
63784;SDS011;49927;48.146;11.420;2022-10-17T13:00:03;2.05;;;1.85;;
63784;SDS011;49927;48.146;11.420;2022-10-17T13:02:40;6.20;;;2.25;;
63784;SDS011;49927;48.146;11.420;2022-10-17T13:05:07;4.72;;;1.98;;
63784;SDS011;49927;48.146;11.420;2022-10-17T13:07:36;4.40;;;2.00;;
63784;SDS011;49927;48.146;11.420;2022-10-17T13:10:05;3.80;;;2.15;;
63784;SDS011;49927;48.146;11.420;2022-10-17T13:12:40;2.53;;;1.50;;
63784;SDS011;49927;48.146;11.420;2022-10-17T13:15:10;3.00;;;1.88;;
63784;SDS011;49927;48.146;11.420;2022-10-17T13:17:40;5.18;;;2.15;;
63784;SDS011;49927;48.146;11.420;2022-10-17T13:20:06;1.98;;;1.70;;
63784;SDS011;49927;48.146;11.420;2022-10-17T13:22:43;2.95;;;1.55;;
63784;SDS011;49927;48.146;11.420;2022-10-17T13:25:13;2.17;;;1.92;;
63784;SDS011;49927;48.146;11.420;2022-10-17T13:27:39;2.50;;;2.00;;
63784;SDS011;49927;48.146;11.420;2022-10-17T13:32:58;3.42;;;1.95;;
63784;SDS011;49927;48.146;11.420;2022-10-17T13:35:25;2.83;;;2.22;;
63784;SDS011;49927;48.146;11.420;2022-10-17T13:37:51;5.15;;;1.90;;
63784;SDS011;49927;48.146;11.420;2022-10-17T13:40:18;3.58;;;1.73;;
63784;SDS011;49927;48.146;11.420;2022-10-17T13:42:45;4.25;;;1.85;;
63784;SDS011;49927;48.146;11.420;2022-10-17T13:45:15;4.50;;;2.60;;
63784;SDS011;49927;48.146;11.420;2022-10-17T13:47:43;2.15;;;1.85;;
63784;SDS011;49927;48.146;11.420;2022-10-17T13:50:18;4.13;;;2.00;;
63784;SDS011;49927;48.146;11.420;2022-10-17T13:52:47;5.78;;;1.90;;
63784;SDS011;49927;48.146;11.420;2022-10-17T13:55:13;5.35;;;2.40;;
63784;SDS011;49927;48.146;11.420;2022-10-17T13:57:40;2.97;;;1.70;;
63784;SDS011;49927;48.146;11.420;2022-10-17T14:00:09;2.15;;;1.73;;
63784;SDS011;49927;48.146;11.420;2022-10-17T14:02:39;5.15;;;2.28;;
63784;SDS011;49927;48.146;11.420;2022-10-17T14:05:09;2.63;;;1.73;;
63784;SDS011;49927;48.146;11.420;2022-10-17T14:07:38;8.88;;;2.38;;
63784;SDS011;49927;48.146;11.420;2022-10-17T14:10:05;5.00;;;2.00;;
63784;SDS011;49927;48.146;11.420;2022-10-17T14:12:42;3.90;;;2.05;;
63784;SDS011;49927;48.146;11.420;2022-10-17T14:15:08;2.55;;;1.90;;
63784;SDS011;49927;48.146;11.420;2022-10-17T14:17:37;5.57;;;2.42;;
63784;SDS011;49927;48.146;11.420;2022-10-17T14:20:03;2.75;;;1.80;;
63784;SDS011;49927;48.146;11.420;2022-10-17T14:22:33;4.40;;;2.13;;
63784;SDS011;49927;48.146;11.420;2022-10-17T14:25:00;2.17;;;1.90;;
63784;SDS011;49927;48.146;11.420;2022-10-17T14:27:28;3.22;;;1.73;;
63784;SDS011;49927;48.146;11.420;2022-10-17T14:29:54;1.70;;;1.60;;
63784;SDS011;49927;48.146;11.420;2022-10-17T14:32:20;2.50;;;2.30;;
63784;SDS011;49927;48.146;11.420;2022-10-17T14:34:50;2.47;;;2.20;;
63784;SDS011;49927;48.146;11.420;2022-10-17T14:37:20;3.13;;;2.08;;
63784;SDS011;49927;48.146;11.420;2022-10-17T14:39:52;6.82;;;2.42;;
63784;SDS011;49927;48.146;11.420;2022-10-17T14:42:20;2.40;;;2.15;;
63784;SDS011;49927;48.146;11.420;2022-10-17T14:44:47;2.50;;;1.90;;
63784;SDS011;49927;48.146;11.420;2022-10-17T14:47:14;1.95;;;1.75;;
63784;SDS011;49927;48.146;11.420;2022-10-17T14:49:41;10.02;;;3.55;;
63784;SDS011;49927;48.146;11.420;2022-10-17T14:52:23;3.42;;;2.08;;
63784;SDS011;49927;48.146;11.420;2022-10-17T14:54:50;3.58;;;1.70;;
63784;SDS011;49927;48.146;11.420;2022-10-17T14:57:16;7.00;;;2.00;;
63784;SDS011;49927;48.146;11.420;2022-10-17T14:59:45;2.95;;;1.70;;
63784;SDS011;49927;48.146;11.420;2022-10-17T15:02:10;1.92;;;1.73;;
63784;SDS011;49927;48.146;11.420;2022-10-17T15:04:36;1.77;;;1.45;;
63784;SDS011;49927;48.146;11.420;2022-10-17T15:07:01;2.63;;;1.75;;
63784;SDS011;49927;48.146;11.420;2022-10-17T15:09:27;2.42;;;1.67;;
63784;SDS011;49927;48.146;11.420;2022-10-17T15:11:52;2.75;;;1.80;;
63784;SDS011;49927;48.146;11.420;2022-10-17T15:14:18;2.72;;;2.13;;
63784;SDS011;49927;48.146;11.420;2022-10-17T15:16:45;4.50;;;2.00;;
63784;SDS011;49927;48.146;11.420;2022-10-17T15:19:11;2.65;;;2.20;;
63784;SDS011;49927;48.146;11.420;2022-10-17T15:21:36;3.90;;;1.98;;
63784;SDS011;49927;48.146;11.420;2022-10-17T15:24:02;2.08;;;1.90;;
63784;SDS011;49927;48.146;11.420;2022-10-17T15:26:28;3.95;;;2.15;;